Time;durP1;ratioP1;P1;durP2;ratioP2;P2;SDS_P1;SDS_P2;PMS_P1;PMS_P2;Temp;Humidity;BMP_temperature;BMP_pressure;BME280_temperature;BME280_humidity;BME280_pressure;Samples;Min_cycle;Max_cycle;Signal;HPM_P1;HPM_P2
2022/04/03 00:01:14;;;;;;;18.67;10.02;;;;;;;3.57;77.53;98227.66;4232810;33;34719;-72
2022/04/03 00:03:42;;;;;;;19.62;9.80;;;;;;;3.61;77.41;98234.50;4232550;33;35149;-72
2022/04/03 00:06:10;;;;;;;16.58;8.70;;;;;;;3.88;76.15;98229.34;4232811;33;34478;-73
2022/04/03 00:08:40;;;;;;;16.70;8.52;;;;;;;3.37;77.83;98234.53;4233564;33;34411;-72
2022/04/03 00:11:09;;;;;;;15.95;8.50;;;;;;;3.59;77.09;98230.25;4231782;33;32929;-72
2022/04/03 00:13:37;;;;;;;14.90;8.32;;;;;;;3.11;78.65;98242.25;4231699;33;34907;-72
2022/04/03 00:16:06;;;;;;;14.82;8.30;;;;;;;2.81;80.90;98238.75;4243744;33;34654;-72
2022/04/03 00:18:34;;;;;;;17.27;9.13;;;;;;;3.19;80.01;98248.22;4232496;33;33854;-72
2022/04/03 00:21:02;;;;;;;16.45;8.25;;;;;;;3.07;79.53;98240.50;4233428;33;34103;-72
2022/04/03 00:23:30;;;;;;;17.30;8.90;;;;;;;3.21;79.18;98239.69;4243152;33;34395;-72
2022/04/03 00:25:58;;;;;;;17.17;8.98;;;;;;;3.40;78.17;98242.25;4233442;33;35133;-72
2022/04/03 00:28:28;;;;;;;14.60;8.27;;;;;;;3.28;78.35;98249.97;4232043;33;33840;-72
2022/04/03 00:30:56;;;;;;;15.60;8.38;;;;;;;3.20;79.25;98253.38;4232395;33;34714;-72
2022/04/03 00:33:25;;;;;;;13.15;8.07;;;;;;;3.37;78.66;98250.84;4232692;33;35051;-72
2022/04/03 00:35:52;;;;;;;13.38;7.80;;;;;;;3.67;77.60;98253.38;4243850;33;34398;-72
2022/04/03 00:38:20;;;;;;;14.35;8.38;;;;;;;3.29;78.19;98261.97;4242884;33;33710;-71
2022/04/03 00:40:49;;;;;;;14.55;8.27;;;;;;;2.95;79.00;98262.78;4233238;33;34040;-72
2022/04/03 00:43:17;;;;;;;16.02;7.82;;;;;;;3.25;78.33;98260.22;4232018;33;35886;-72
2022/04/03 00:45:46;;;;;;;18.27;8.65;;;;;;;3.67;76.62;98263.69;4231236;33;34564;-72
2022/04/03 00:48:15;;;;;;;13.65;8.63;;;;;;;3.39;77.12;98268.84;4242866;33;33201;-72
2022/04/03 00:50:44;;;;;;;18.35;9.15;;;;;;;3.16;78.22;98272.25;4232257;33;34618;-72
2022/04/03 00:53:12;;;;;;;15.23;8.35;;;;;;;2.90;79.08;98273.91;4242866;33;35936;-72
2022/04/03 00:55:42;;;;;;;15.88;8.50;;;;;;;3.13;77.86;98277.38;4233346;33;34738;-72
2022/04/03 00:58:11;;;;;;;13.35;6.72;;;;;;;2.83;79.89;98267.88;4242730;33;33669;-72
2022/04/03 01:00:39;;;;;;;14.68;7.70;;;;;;;3.49;77.68;98273.13;4242767;33;33940;-72
2022/04/03 01:03:07;;;;;;;16.02;8.18;;;;;;;3.81;75.33;98277.41;4232573;33;35186;-72
2022/04/03 01:05:36;;;;;;;15.82;8.77;;;;;;;3.58;75.84;98278.28;4232073;33;35288;-72
2022/04/03 01:08:04;;;;;;;15.20;7.68;;;;;;;2.96;78.75;98289.34;4232457;33;33696;-72
2022/04/03 01:10:33;;;;;;;14.73;8.43;;;;;;;3.18;78.98;98285.13;4232108;33;34753;-72
2022/04/03 01:13:01;;;;;;;17.20;8.38;;;;;;;3.34;77.55;98297.12;4232082;33;35026;-72
2022/04/03 01:15:29;;;;;;;16.75;7.43;;;;;;;3.66;76.10;98298.03;4233007;33;34549;-72
2022/04/03 01:17:57;;;;;;;16.20;8.18;;;;;;;3.45;76.65;98297.16;4242014;33;34491;-72
2022/04/03 01:20:25;;;;;;;15.27;7.68;;;;;;;3.70;75.90;98300.59;4233037;33;34022;-72
2022/04/03 01:22:53;;;;;;;14.77;8.65;;;;;;;3.25;77.75;98301.41;4232297;33;34899;-72
2022/04/03 01:25:21;;;;;;;14.30;7.60;;;;;;;3.30;78.13;98299.69;4233128;33;34632;-72
2022/04/03 01:27:49;;;;;;;14.98;8.65;;;;;;;3.63;77.11;98305.75;4231135;33;34460;-72
2022/04/03 01:30:17;;;;;;;18.83;8.00;;;;;;;3.04;79.62;98305.66;4232967;33;33768;-72
2022/04/03 01:32:46;;;;;;;13.45;7.35;;;;;;;3.30;78.05;98304.84;4232181;33;35795;-72
2022/04/03 01:35:14;;;;;;;15.38;6.90;;;;;;;3.18;78.39;98310.84;4231876;33;33727;-72
2022/04/03 01:37:42;;;;;;;17.12;8.88;;;;;;;3.34;77.83;98310.00;4232076;33;34608;-72
2022/04/03 01:40:12;;;;;;;16.30;7.32;;;;;;;2.99;80.10;98309.94;4232172;33;34672;-72
2022/04/03 01:42:40;;;;;;;13.20;7.43;;;;;;;3.53;77.63;98316.03;4230496;33;34612;-72
2022/04/03 01:45:09;;;;;;;14.90;7.45;;;;;;;3.19;78.52;98315.13;4231684;33;34588;-72
2022/04/03 01:47:38;;;;;;;12.35;7.22;;;;;;;3.92;76.20;98316.06;4232092;33;33607;-72
2022/04/03 01:50:06;;;;;;;13.13;7.43;;;;;;;3.72;76.88;98316.03;4231717;33;33827;-72
2022/04/03 01:52:34;;;;;;;15.07;8.13;;;;;;;3.74;76.47;98322.91;4231960;33;35113;-72
2022/04/03 01:55:03;;;;;;;16.15;8.10;;;;;;;3.89;75.42;98322.03;4231898;33;34228;-72
2022/04/03 01:57:31;;;;;;;16.35;7.57;;;;;;;4.07;74.60;98328.03;4231922;33;33901;-72
2022/04/03 01:59:59;;;;;;;16.95;8.02;;;;;;;3.93;74.88;98331.47;4232612;33;33996;-73
2022/04/03 02:02:27;;;;;;;14.00;7.95;;;;;;;3.28;78.06;98337.44;4231034;33;34642;-73
2022/04/03 02:04:56;;;;;;;17.50;8.88;;;;;;;3.00;79.45;98343.38;4232632;33;34368;-72
2022/04/03 02:07:25;;;;;;;14.90;8.35;;;;;;;3.38;77.72;98341.75;4231758;33;33730;-73
2022/04/03 02:09:54;;;;;;;15.73;8.25;;;;;;;3.30;78.77;98335.72;4230109;33;34736;-72
2022/04/03 02:12:22;;;;;;;16.45;8.25;;;;;;;2.71;81.58;98348.38;4231371;33;35984;-72
2022/04/03 02:14:50;;;;;;;14.45;7.43;;;;;;;3.44;78.46;98346.87;4229067;33;34446;-72
2022/04/03 02:17:18;;;;;;;15.02;8.20;;;;;;;3.83;76.36;98345.25;4232999;33;33610;-72
2022/04/03 02:19:45;;;;;;;15.23;7.30;;;;;;;3.27;78.91;98356.31;4234412;33;34754;-72
2022/04/03 02:22:20;;;;;;;15.13;7.68;;;;;;;3.28;78.39;98358.00;4233227;33;35132;-74
2022/04/03 02:24:48;;;;;;;17.67;9.00;;;;;;;3.57;77.28;98364.09;4244454;33;34565;-72
2022/04/03 02:27:16;;;;;;;13.45;7.47;;;;;;;3.81;75.57;98354.66;4243639;33;34554;-71
2022/04/03 02:29:44;;;;;;;15.88;8.57;;;;;;;4.20;74.81;98363.25;4233501;33;34689;-72
2022/04/03 02:32:13;;;;;;;16.55;8.65;;;;;;;3.38;78.18;98362.34;4230402;33;36071;-72
2022/04/03 02:34:41;;;;;;;14.45;7.53;;;;;;;2.61;81.20;98359.47;4231500;33;33068;-71
2022/04/03 02:37:14;;;;;;;13.02;6.07;;;;;;;3.00;80.26;98366.50;4232727;33;32767;-71
2022/04/03 02:39:44;;;;;;;12.52;6.65;;;;;;;2.19;81.09;98358.34;4230764;33;34516;-72
2022/04/03 02:42:12;;;;;;;10.27;5.55;;;;;;;2.68;78.98;98356.06;4240907;33;35857;-72
2022/04/03 02:44:40;;;;;;;9.73;5.43;;;;;;;2.39;81.00;98369.63;4233310;33;34547;-71
2022/04/03 02:47:08;;;;;;;11.75;5.75;;;;;;;2.62;79.51;98363.75;4231163;33;34600;-71
2022/04/03 02:49:36;;;;;;;13.43;6.90;;;;;;;2.50;80.68;98379.09;4244044;33;34588;-71
2022/04/03 02:52:04;;;;;;;9.95;5.00;;;;;;;2.65;79.06;98377.50;4232589;33;35906;-71
2022/04/03 02:54:33;;;;;;;7.93;4.80;;;;;;;2.47;80.53;98377.37;4232190;33;35284;-71
2022/04/03 02:57:02;;;;;;;7.65;4.25;;;;;;;2.83;79.16;98374.16;4232594;33;34396;-71
2022/04/03 02:59:29;;;;;;;7.43;4.60;;;;;;;2.41;81.47;98385.91;4232235;33;33382;-71
2022/04/03 03:01:57;;;;;;;7.45;4.05;;;;;;;2.62;79.68;98381.75;4231972;33;35907;-71
2022/04/03 03:04:25;;;;;;;6.68;3.70;;;;;;;2.67;79.10;98390.34;4232286;33;33070;-71
2022/04/03 03:06:54;;;;;;;8.98;5.00;;;;;;;2.29;81.21;98398.66;4232917;33;33516;-71
2022/04/03 03:09:21;;;;;;;7.00;4.05;;;;;;;2.45;80.90;98403.06;4232588;33;33883;-72
2022/04/03 03:11:49;;;;;;;7.97;4.72;;;;;;;3.15;77.97;98399.13;4233588;33;35044;-70
2022/04/03 03:14:17;;;;;;;4.82;3.28;;;;;;;2.54;80.81;98404.84;4232107;33;34368;-72
2022/04/03 03:16:45;;;;;;;6.72;4.07;;;;;;;2.74;80.43;98412.66;4233494;33;33678;-72
2022/04/03 03:19:15;;;;;;;6.12;3.62;;;;;;;2.51;81.20;98414.25;4230015;33;33709;-74
2022/04/03 03:21:44;;;;;;;11.98;4.10;;;;;;;2.35;82.30;98423.53;4233418;33;33492;-71
2022/04/03 03:24:11;;;;;;;9.48;4.80;;;;;;;2.68;80.23;98425.47;4231907;33;35191;-70
2022/04/03 03:26:40;;;;;;;7.25;4.37;;;;;;;2.49;81.69;98427.09;4233741;33;33785;-71
2022/04/03 03:29:08;;;;;;;8.38;4.55;;;;;;;2.65;81.17;98428.88;4232673;33;33934;-69
2022/04/03 03:31:36;;;;;;;8.52;4.57;;;;;;;2.46;81.91;98434.75;4233747;33;35045;-69
2022/04/03 03:34:05;;;;;;;7.40;4.45;;;;;;;2.61;81.42;98434.00;4233142;33;34543;-69
2022/04/03 03:36:33;;;;;;;6.32;4.00;;;;;;;2.76;80.96;98435.81;4232906;33;34408;-76
2022/04/03 03:39:00;;;;;;;8.18;4.72;;;;;;;2.79;80.19;98441.84;4232320;33;34377;-71
2022/04/03 03:41:28;;;;;;;8.45;5.05;;;;;;;2.84;80.01;98444.41;4233584;33;35029;-70
2022/04/03 03:43:56;;;;;;;7.78;4.15;;;;;;;2.68;79.86;98445.19;4232812;33;35070;-70
2022/04/03 03:46:24;;;;;;;8.98;4.65;;;;;;;2.62;80.62;98449.44;4233633;33;33746;-76
2022/04/03 03:48:52;;;;;;;7.75;4.57;;;;;;;2.32;81.71;98452.63;4243139;33;33892;-75
2022/04/03 03:51:20;;;;;;;7.18;4.15;;;;;;;2.59;82.24;98454.53;4233300;33;35414;-72
2022/04/03 03:53:48;;;;;;;7.18;4.20;;;;;;;2.94;80.19;98455.63;4232620;33;35074;-75
2022/04/03 03:56:17;;;;;;;8.90;4.47;;;;;;;2.65;80.75;98464.88;4233602;33;33570;-76
2022/04/03 03:58:45;;;;;;;6.75;4.37;;;;;;;2.81;80.36;98464.97;4233003;33;33931;-76
2022/04/03 04:01:13;;;;;;;7.32;4.72;;;;;;;2.29;82.10;98470.59;4233506;33;36135;-72
2022/04/03 04:03:41;;;;;;;9.27;5.22;;;;;;;2.81;80.70;98476.13;4231939;33;35096;-72
2022/04/03 04:06:09;;;;;;;8.80;5.00;;;;;;;2.26;81.58;98481.72;4232456;33;33714;-75
2022/04/03 04:08:37;;;;;;;11.25;5.93;;;;;;;2.30;82.37;98480.03;4232900;33;33856;-75
2022/04/03 04:11:06;;;;;;;9.95;5.60;;;;;;;2.73;80.80;98484.63;4232653;33;34777;-77
2022/04/03 04:13:34;;;;;;;8.07;4.65;;;;;;;3.27;77.23;98490.09;4232750;33;35363;-76
2022/04/03 04:16:02;;;;;;;9.43;4.57;;;;;;;2.95;78.85;98493.34;4232205;33;33725;-76
2022/04/03 04:18:30;;;;;;;8.18;4.32;;;;;;;2.68;79.86;98494.00;4232476;33;34423;-75
2022/04/03 04:20:58;;;;;;;9.48;4.80;;;;;;;2.52;81.99;98503.31;4218402;34;35039;-76
2022/04/03 04:23:26;;;;;;;8.77;5.03;;;;;;;2.73;80.33;98488.06;4224260;33;35056;-70
2022/04/03 04:25:54;;;;;;;8.40;5.20;;;;;;;2.47;80.80;98499.00;4243912;33;33706;-76
2022/04/03 04:28:22;;;;;;;8.48;4.68;;;;;;;2.98;79.66;98513.91;4242822;33;34278;-76
2022/04/03 04:30:50;;;;;;;6.97;4.20;;;;;;;2.96;79.02;98513.91;4243839;33;35200;-76
2022/04/03 04:33:19;;;;;;;7.20;4.30;;;;;;;3.47;77.41;98518.47;4243156;33;34434;-76
2022/04/03 04:35:46;;;;;;;7.22;4.05;;;;;;;2.91;79.61;98522.44;4242621;33;32460;-76
2022/04/03 04:38:14;;;;;;;9.07;4.60;;;;;;;3.17;78.63;98531.19;4231644;33;33758;-77
2022/04/03 04:40:44;;;;;;;6.57;4.05;;;;;;;3.50;77.04;98533.94;4232518;33;35918;-70
2022/04/03 04:43:12;;;;;;;9.48;4.45;;;;;;;2.36;82.25;98538.31;4219894;33;35232;-76
2022/04/03 04:45:39;;;;;;;6.75;3.47;;;;;;;3.11;79.14;98541.44;4232200;33;34065;-73
2022/04/03 04:48:08;;;;;;;10.63;4.35;;;;;;;2.70;81.52;98539.47;4232346;33;33934;-73
2022/04/03 04:50:36;;;;;;;6.32;4.05;;;;;;;2.98;80.35;98552.50;4233113;33;35923;-70
2022/04/03 04:53:04;;;;;;;9.50;4.57;;;;;;;2.77;80.37;98556.66;4232438;33;34451;-70
2022/04/03 04:55:32;;;;;;;8.63;4.53;;;;;;;2.96;80.87;98557.62;4233242;33;33708;-70
2022/04/03 04:58:00;;;;;;;5.95;3.60;;;;;;;3.35;77.94;98560.44;4231584;33;33974;-76
2022/04/03 05:00:30;;;;;;;6.87;3.67;;;;;;;3.44;78.42;98562.22;4232163;33;35178;-71
2022/04/03 05:02:59;;;;;;;6.25;3.58;;;;;;;3.68;76.88;98569.19;4232402;33;33749;-72
2022/04/03 05:05:29;;;;;;;8.77;4.40;;;;;;;4.07;75.62;98571.03;4232005;33;33650;-73
2022/04/03 05:07:58;;;;;;;5.70;3.60;;;;;;;3.90;74.92;98571.00;4232448;33;34722;-69
2022/04/03 05:10:26;;;;;;;6.22;3.67;;;;;;;3.10;78.85;98575.72;4232062;33;35030;-71
2022/04/03 05:12:55;;;;;;;5.95;3.40;;;;;;;3.51;77.15;98589.69;4231279;33;34424;-74
2022/04/03 05:15:23;;;;;;;5.68;3.33;;;;;;;3.64;76.83;98582.94;4220156;33;33646;-71
2022/04/03 05:17:51;;;;;;;4.93;2.95;;;;;;;2.88;80.73;98589.28;4242861;33;34081;-74
2022/04/03 05:20:20;;;;;;;5.30;3.40;;;;;;;3.26;79.42;98591.28;4233154;33;35978;-75
2022/04/03 05:22:48;;;;;;;5.62;3.15;;;;;;;2.93;79.09;98590.16;4232419;33;34512;-74
2022/04/03 05:25:16;;;;;;;7.68;3.45;;;;;;;3.47;77.66;98599.13;4229467;33;33826;-70
2022/04/03 05:27:44;;;;;;;6.37;4.03;;;;;;;3.30;78.07;98601.59;4218990;33;33996;-74
2022/04/03 05:30:13;;;;;;;6.40;3.62;;;;;;;3.01;79.68;98606.53;4231982;33;35198;-70
2022/04/03 05:32:42;;;;;;;9.00;4.70;;;;;;;3.08;78.67;98603.16;4232259;33;35049;-74
2022/04/03 05:35:11;;;;;;;4.95;3.50;;;;;;;3.06;79.44;98609.16;4231258;33;33382;-75
2022/04/03 05:37:43;;;;;;;6.22;3.87;;;;;;;3.92;75.77;98610.50;4232957;33;34820;-76
2022/04/03 05:40:12;;;;;;;7.60;4.22;;;;;;;3.52;77.74;98615.44;4230490;33;33173;-71
2022/04/03 05:42:40;;;;;;;5.60;3.80;;;;;;;3.82;75.32;98621.63;4232859;33;34699;-76
2022/04/03 05:45:09;;;;;;;6.03;3.60;;;;;;;3.99;74.91;98626.84;4231133;33;33976;-75
2022/04/03 05:47:38;;;;;;;6.50;3.58;;;;;;;3.91;74.85;98629.37;4232088;33;34673;-73
2022/04/03 05:50:12;;;;;;;8.63;4.80;;;;;;;3.55;76.91;98632.62;4232434;33;35207;-70
2022/04/03 05:52:41;;;;;;;43.38;19.65;;;;;;;2.97;79.18;98633.94;4237463;33;34581;-74
2022/04/03 05:55:10;;;;;;;20.27;10.88;;;;;;;2.54;80.22;98632.69;4224018;33;33806;-73
2022/04/03 05:57:38;;;;;;;18.15;8.75;;;;;;;3.56;77.79;98639.50;4236275;33;34602;-74
2022/04/03 06:00:12;;;;;;;10.30;6.35;;;;;;;3.50;77.40;98642.91;4246844;33;35764;-72
2022/04/03 06:02:48;;;;;;;10.23;5.95;;;;;;;2.70;79.66;98646.53;4236703;33;34621;-72
2022/04/03 06:05:24;;;;;;;16.62;11.70;;;;;;;2.94;80.03;98646.75;4236021;33;33079;-73
2022/04/03 06:08:00;;;;;;;15.80;9.73;;;;;;;2.81;80.65;98645.81;4235909;33;33828;-74
2022/04/03 06:10:30;;;;;;;12.02;7.93;;;;;;;2.69;80.82;98650.81;4237030;33;35140;-73
2022/04/03 06:13:03;;;;;;;50.53;31.58;;;;;;;2.40;81.40;98658.22;4228529;33;33753;-74
2022/04/03 06:15:39;;;;;;;55.88;37.80;;;;;;;2.71;81.91;98655.97;4235586;33;33893;-71
2022/04/03 06:18:09;;;;;;;18.80;11.25;;;;;;;2.89;80.92;98657.84;4235842;33;34792;-73
2022/04/03 06:20:38;;;;;;;11.70;6.55;;;;;;;2.49;81.85;98660.91;4236748;33;35144;-72
2022/04/03 06:23:15;;;;;;;13.43;7.65;;;;;;;2.21;82.90;98670.03;4236920;33;35146;-72
2022/04/03 06:25:45;;;;;;;12.27;7.00;;;;;;;2.34;83.02;98671.00;4236756;33;33684;-71
2022/04/03 06:28:13;;;;;;;14.82;8.55;;;;;;;2.90;79.85;98669.88;4224337;33;34698;-73
2022/04/03 06:30:41;;;;;;;13.07;7.57;;;;;;;2.74;80.85;98679.16;4236808;33;34948;-72
2022/04/03 06:33:10;;;;;;;14.18;8.70;;;;;;;2.94;80.65;98677.63;4236860;33;35294;-73
2022/04/03 06:35:38;;;;;;;16.02;8.35;;;;;;;2.77;81.17;98680.06;4238499;33;33823;-73
2022/04/03 06:38:13;;;;;;;14.30;8.20;;;;;;;2.65;81.95;98695.34;4247022;33;34043;-73
2022/04/03 06:40:48;;;;;;;14.02;8.45;;;;;;;2.76;81.64;98692.88;4247000;33;35976;-73
2022/04/03 06:43:18;;;;;;;16.08;9.38;;;;;;;3.06;80.04;98692.31;4236560;33;34356;-72
2022/04/03 06:45:47;;;;;;;13.35;8.23;;;;;;;3.12;79.21;98697.50;4247076;33;33807;-73
2022/04/03 06:48:16;;;;;;;16.48;9.07;;;;;;;3.08;79.20;98700.91;4236689;33;34645;-72
2022/04/03 06:50:44;;;;;;;17.45;10.68;;;;;;;2.92;80.20;98699.03;4245842;33;35186;-72
2022/04/03 06:53:12;;;;;;;16.33;9.80;;;;;;;2.81;81.13;98711.78;4235355;33;35372;-71
2022/04/03 06:55:41;;;;;;;18.12;10.15;;;;;;;3.23;79.32;98720.78;4234077;33;33243;-72
2022/04/03 06:58:09;;;;;;;17.42;10.65;;;;;;;2.74;81.24;98720.28;4234888;33;34115;-71
2022/04/03 07:00:38;;;;;;;18.62;11.30;;;;;;;2.64;81.89;98725.31;4236287;33;35804;-73
2022/04/03 07:03:07;;;;;;;17.65;10.85;;;;;;;3.10;79.76;98719.78;4234341;33;34560;-70
2022/04/03 07:05:35;;;;;;;22.15;13.13;;;;;;;2.82;81.41;98713.50;4233629;33;33510;-71
2022/04/03 07:08:03;;;;;;;19.05;11.73;;;;;;;2.99;80.46;98729.09;4233660;33;34698;-70
2022/04/03 07:10:31;;;;;;;21.35;12.70;;;;;;;3.23;79.26;98731.06;4232860;33;35082;-70
2022/04/03 07:12:59;;;;;;;18.35;11.25;;;;;;;2.99;78.64;98745.41;4233811;33;34637;-70
2022/04/03 07:15:27;;;;;;;22.02;12.60;;;;;;;3.14;78.09;98747.28;4233665;33;34585;-70
2022/04/03 07:17:55;;;;;;;26.42;13.98;;;;;;;3.46;75.65;98746.69;4232765;33;33763;-69
2022/04/03 07:20:23;;;;;;;29.55;15.07;;;;;;;3.22;77.56;98753.31;4232526;33;35904;-71
2022/04/03 07:22:51;;;;;;;23.60;12.55;;;;;;;3.33;76.80;98760.28;4233383;33;34523;-72
2022/04/03 07:25:22;;;;;;;25.98;13.98;;;;;;;3.17;76.03;98757.56;4232040;33;32951;-71
2022/04/03 07:27:50;;;;;;;28.35;15.82;;;;;;;3.13;77.08;98758.41;4232494;33;33735;-71
2022/04/03 07:30:18;;;;;;;35.60;22.58;;;;;;;3.60;75.55;98770.81;4232154;33;35184;-72
2022/04/03 07:32:46;;;;;;;18.50;12.15;;;;;;;3.64;75.50;98770.84;4231052;33;34669;-72
2022/04/03 07:35:14;;;;;;;22.08;11.07;;;;;;;3.50;73.97;98776.75;4232924;33;33715;-71
2022/04/03 07:37:42;;;;;;;22.55;12.50;;;;;;;3.86;74.56;98783.00;4242280;33;33765;-71
2022/04/03 07:40:11;;;;;;;24.23;13.02;;;;;;;3.72;74.30;98788.06;4229300;33;34947;-71
2022/04/03 07:42:39;;;;;;;22.10;12.10;;;;;;;3.89;73.41;98790.78;4221019;33;32975;-71
2022/04/03 07:45:08;;;;;;;18.40;10.95;;;;;;;4.46;71.01;98800.56;4233284;33;33798;-71
2022/04/03 07:47:50;;;;;;;22.90;11.70;;;;;;;4.04;72.29;98800.34;4232590;33;33922;-71
2022/04/03 07:50:19;;;;;;;22.80;12.75;;;;;;;3.88;72.14;98799.38;4231857;33;35947;-71
2022/04/03 07:52:48;;;;;;;25.65;11.93;;;;;;;3.47;73.46;98809.31;4231850;33;35176;-71
2022/04/03 07:55:17;;;;;;;16.80;10.85;;;;;;;3.83;72.50;98813.91;4233053;33;33737;-70
2022/04/03 07:57:45;;;;;;;17.95;9.98;;;;;;;4.03;71.43;98808.91;4232416;33;32421;-67
2022/04/03 08:00:13;;;;;;;18.30;10.07;;;;;;;3.97;72.08;98819.16;4232886;33;35876;-68
2022/04/03 08:02:42;;;;;;;13.70;8.45;;;;;;;3.70;73.69;98822.38;4233545;33;35256;-69
2022/04/03 08:05:10;;;;;;;21.27;11.00;;;;;;;4.30;70.68;98822.81;4232874;33;34582;-68
2022/04/03 08:07:43;;;;;;;23.35;10.75;;;;;;;4.20;70.72;98827.06;4232531;33;34822;-67
2022/04/03 08:10:14;;;;;;;17.45;10.25;;;;;;;4.02;71.08;98829.50;4230213;33;34925;-67
2022/04/03 08:12:43;;;;;;;18.83;10.48;;;;;;;4.49;68.88;98828.94;4232564;33;33708;-67
2022/04/03 08:15:13;;;;;;;14.35;9.52;;;;;;;3.89;68.50;98837.13;4232121;33;34603;-68
2022/04/03 08:17:42;;;;;;;14.13;9.13;;;;;;;4.32;69.82;98847.75;4233620;33;34816;-68
2022/04/03 08:20:12;;;;;;;23.73;11.48;;;;;;;4.05;70.18;98842.41;4231353;33;34294;-68
2022/04/03 08:22:40;;;;;;;15.40;9.75;;;;;;;4.18;68.57;98850.25;4233603;33;34376;-68
2022/04/03 08:25:09;;;;;;;15.38;9.48;;;;;;;4.45;68.80;98850.41;4231935;33;33684;-68
2022/04/03 08:28:04;;;;;;;11.77;7.37;;;;;;;4.66;69.23;98858.25;4232724;33;34758;-68
2022/04/03 08:30:37;;;;;;;20.37;10.35;;;;;;;4.85;66.54;98858.34;4231235;33;35198;-68
2022/04/03 08:33:06;;;;;;;12.20;7.72;;;;;;;4.86;68.04;98862.66;4233481;33;35384;-68
2022/04/03 08:35:38;;;;;;;15.27;9.05;;;;;;;4.68;66.40;98866.88;4242840;33;33625;-68
2022/04/03 08:38:07;;;;;;;16.05;8.23;;;;;;;3.74;70.29;98865.31;4233538;33;33910;-69
2022/04/03 08:40:36;;;;;;;17.65;9.55;;;;;;;4.46;67.16;98877.91;4232589;33;35132;-68
2022/04/03 08:43:04;;;;;;;15.63;9.18;;;;;;;3.72;69.50;98878.19;4232723;33;34736;-68
2022/04/03 08:45:32;;;;;;;16.85;9.90;;;;;;;4.32;69.14;98894.16;4230684;33;33571;-68
2022/04/03 08:48:02;;;;;;;20.05;10.55;;;;;;;3.36;71.32;98889.00;4233407;33;34033;-68
2022/04/03 08:50:35;;;;;;;22.73;9.70;;;;;;;4.10;70.51;98890.53;4232606;33;35074;-68
2022/04/03 08:53:06;;;;;;;15.80;9.45;;;;;;;4.23;69.32;98890.63;4232274;33;34270;-69
2022/04/03 08:55:34;;;;;;;16.23;10.20;;;;;;;4.75;67.18;98899.56;4232571;33;33788;-68
2022/04/03 08:58:03;;;;;;;17.40;10.40;;;;;;;4.12;69.87;98895.72;4233217;33;33814;-68
2022/04/03 09:00:32;;;;;;;17.90;9.77;;;;;;;4.24;70.54;98898.38;4231283;33;36008;-69
2022/04/03 09:03:00;;;;;;;19.85;10.80;;;;;;;4.06;70.12;98890.50;4231487;33;34336;-68
2022/04/03 09:05:36;;;;;;;18.25;11.02;;;;;;;4.64;69.13;98896.09;4231761;33;33774;-68
2022/04/03 09:08:06;;;;;;;15.35;10.40;;;;;;;5.13;67.17;98898.03;4232515;33;33931;-68
2022/04/03 09:10:34;;;;;;;18.83;10.85;;;;;;;5.31;65.17;98899.81;4232408;33;34946;-68
2022/04/03 09:13:03;;;;;;;20.15;10.00;;;;;;;5.27;68.14;98908.41;4232119;33;35281;-69
2022/04/03 09:15:31;;;;;;;19.70;11.12;;;;;;;5.21;66.65;98896.34;4242469;33;33819;-68
2022/04/03 09:18:04;;;;;;;17.17;10.23;;;;;;;5.38;65.89;98896.37;4233482;33;33985;-69
2022/04/03 09:20:36;;;;;;;17.08;10.23;;;;;;;4.84;66.84;98897.91;4232495;33;35255;-69
2022/04/03 09:23:05;;;;;;;16.02;9.07;;;;;;;5.09;66.34;98910.06;4233110;33;34486;-68
2022/04/03 09:25:36;;;;;;;16.10;9.85;;;;;;;4.51;67.50;98909.75;4229885;33;35271;-69
2022/04/03 09:28:06;;;;;;;20.05;11.25;;;;;;;5.48;67.00;98917.94;4233137;33;33931;-69
2022/04/03 09:30:46;;;;;;;16.73;8.88;;;;;;;5.76;67.85;98916.28;4230667;33;35731;-69
2022/04/03 09:33:19;;;;;;;16.23;9.30;;;;;;;6.57;67.19;98907.72;4232998;33;35314;-69
2022/04/03 09:36:01;;;;;;;22.83;10.98;;;;;;;6.57;63.89;98915.47;4230386;33;33705;-69
2022/04/03 09:38:30;;;;;;;16.92;9.35;;;;;;;6.70;62.28;98912.88;4232303;33;33895;-69
2022/04/03 09:41:00;;;;;;;16.67;10.50;;;;;;;6.35;63.13;98919.78;4231459;33;34652;-69
2022/04/03 09:43:35;;;;;;;16.20;9.68;;;;;;;6.88;62.56;98930.06;4232890;33;34171;-68
2022/04/03 09:46:05;;;;;;;17.98;9.30;;;;;;;7.67;61.56;98926.28;4231324;33;33226;-69
2022/04/03 09:48:41;;;;;;;15.55;9.18;;;;;;;7.10;60.57;98930.88;4232887;33;33120;-69
2022/04/03 09:51:11;;;;;;;14.68;8.40;;;;;;;6.58;66.18;98932.72;4231663;33;35806;-69
2022/04/03 09:53:46;;;;;;;17.85;10.63;;;;;;;7.10;61.29;98942.09;4243404;33;33826;-68
2022/04/03 09:56:31;;;;;;;18.95;10.65;;;;;;;7.01;62.38;98947.31;4242730;33;33670;-69
2022/04/03 09:59:07;;;;;;;16.20;10.20;;;;;;;6.74;62.88;98940.44;4231825;33;33778;-68
2022/04/03 10:01:40;;;;;;;15.40;10.02;;;;;;;6.70;61.97;98947.34;4232608;33;35965;-68
2022/04/03 10:04:10;;;;;;;17.27;10.40;;;;;;;7.28;62.92;98946.34;4231773;33;35260;-68
2022/04/03 10:06:38;;;;;;;11.98;8.30;;;;;;;8.57;59.90;98943.81;4231807;33;33751;-68
2022/04/03 10:09:11;;;;;;;15.88;10.18;;;;;;;7.48;59.08;98953.16;4231523;33;33907;-69
2022/04/03 10:11:40;;;;;;;14.75;10.02;;;;;;;7.38;59.41;98953.22;4231691;33;34983;-69
2022/04/03 10:14:09;;;;;;;18.35;9.93;;;;;;;8.15;61.28;98957.97;4232508;33;35409;-68
2022/04/03 10:16:37;;;;;;;14.68;9.02;;;;;;;7.37;61.37;98959.25;4230244;33;33590;-69
2022/04/03 10:19:05;;;;;;;17.55;9.75;;;;;;;8.55;57.62;98951.63;4232485;33;33984;-69
2022/04/03 10:21:39;;;;;;;14.68;8.52;;;;;;;7.92;58.46;98959.84;4242109;33;36021;-69
2022/04/03 10:24:15;;;;;;;15.38;9.35;;;;;;;8.46;58.90;98964.69;4228053;33;32883;-69
2022/04/03 10:26:46;;;;;;;16.23;9.55;;;;;;;8.26;58.95;98960.47;4231637;33;33885;-68
2022/04/03 10:29:15;;;;;;;16.40;8.13;;;;;;;7.92;59.73;98970.22;4232377;33;34686;-69
2022/04/03 10:31:55;;;;;;;16.77;9.27;;;;;;;8.56;57.07;98973.22;4231603;33;35985;-69
2022/04/03 10:34:26;;;;;;;16.58;10.77;;;;;;;8.61;57.92;98967.16;4232267;33;35375;-69
2022/04/03 10:36:54;;;;;;;15.15;8.65;;;;;;;8.57;59.35;98962.00;4232037;33;32835;-70
2022/04/03 10:39:24;;;;;;;17.37;10.35;;;;;;;9.00;56.08;98969.34;4233404;33;34082;-68
2022/04/03 10:42:16;;;;;;;17.23;10.57;;;;;;;9.22;58.92;98976.06;4233489;33;34293;-69
2022/04/03 10:45:16;;;;;;;14.05;8.70;;;;;;;9.04;55.11;98971.06;4233301;33;35357;-69
2022/04/03 10:47:46;;;;;;;13.85;8.40;;;;;;;8.40;59.41;98970.75;4232315;33;33767;-70
2022/04/03 10:50:22;;;;;;;16.73;9.65;;;;;;;8.56;55.57;98973.22;4234217;33;34855;-68
2022/04/03 10:52:51;;;;;;;17.58;10.57;;;;;;;8.67;55.66;98979.22;4232121;33;37225;-69
2022/04/03 10:55:25;;;;;;;17.60;9.13;;;;;;;8.79;54.01;98971.31;4233319;33;34415;-69
2022/04/03 10:58:03;;;;;;;14.77;9.70;;;;;;;9.02;56.60;98972.81;4233291;33;33851;-70
2022/04/03 11:00:37;;;;;;;15.15;9.30;;;;;;;8.76;54.26;98976.53;4234117;33;34709;-69
2022/04/03 11:03:14;;;;;;;14.15;9.23;;;;;;;9.08;54.13;98975.34;4232083;33;35957;-69
2022/04/03 11:05:46;;;;;;;16.17;9.90;;;;;;;8.41;54.15;98977.66;4233918;33;35237;-69
2022/04/03 11:08:16;;;;;;;17.95;9.65;;;;;;;9.06;53.43;98984.91;4243450;33;33617;-69
2022/04/03 11:10:54;;;;;;;15.35;8.68;;;;;;;8.10;54.51;98985.66;4243510;33;33891;-69
2022/04/03 11:13:24;;;;;;;18.80;9.68;;;;;;;8.84;55.76;98985.13;4233189;33;35950;-69
2022/04/03 11:15:56;;;;;;;16.73;10.10;;;;;;;9.00;54.05;98990.13;4233926;33;35129;-69
2022/04/03 11:18:49;;;;;;;14.98;9.10;;;;;;;9.02;54.79;98988.41;4232036;33;33729;-70
2022/04/03 11:21:24;;;;;;;15.35;8.00;;;;;;;9.34;51.94;98992.41;4233946;33;33891;-69
2022/04/03 11:23:59;;;;;;;18.80;9.23;;;;;;;9.53;54.86;99001.69;4231905;33;35034;-70
2022/04/03 11:26:28;;;;;;;19.45;9.57;;;;;;;10.17;52.36;99004.31;4233020;33;35120;-69
2022/04/03 11:29:04;;;;;;;12.63;8.25;;;;;;;9.41;52.10;99010.50;4233385;33;34536;-70
2022/04/03 11:31:33;;;;;;;15.73;8.95;;;;;;;9.30;54.19;99005.41;4232806;33;33688;-69
2022/04/03 11:34:02;;;;;;;12.82;7.57;;;;;;;9.18;51.41;99004.69;4233052;33;35878;-70
2022/04/03 11:36:32;;;;;;;14.65;9.27;;;;;;;9.78;54.53;99011.78;4233760;33;34489;-69
2022/04/03 11:39:01;;;;;;;14.30;7.30;;;;;;;9.63;52.37;99008.47;4243357;33;33593;-69
2022/04/03 11:41:32;;;;;;;11.63;7.90;;;;;;;9.52;50.66;98999.97;4243481;33;33423;-69
2022/04/03 11:44:11;;;;;;;17.48;9.32;;;;;;;8.90;53.97;99016.19;4231914;33;35140;-69
2022/04/03 11:46:44;;;;;;;16.08;8.65;;;;;;;8.97;52.25;99008.38;4233844;33;35259;-69